Time;durP1;ratioP1;P1;durP2;ratioP2;P2;SDS_P1;SDS_P2;PMS_P1;PMS_P2;Temp;Humidity;BMP_temperature;BMP_pressure;BME280_temperature;BME280_humidity;BME280_pressure;Samples;Min_cycle;Max_cycle;Signal;HPM_P1;HPM_P2
2023/07/17 00:01:17;;;;;;;5.20;2.47;;;16.60;99.90;;;;;;5112189;27;20047;-79
2023/07/17 00:03:44;;;;;;;5.13;2.40;;;16.60;99.90;;;;;;5114274;27;20040;-79
2023/07/17 00:06:09;;;;;;;5.15;2.05;;;16.60;99.90;;;;;;5109165;27;20110;-78
2023/07/17 00:08:35;;;;;;;8.63;3.22;;;16.60;99.90;;;;;;5107809;28;20087;-78
2023/07/17 00:11:01;;;;;;;7.90;2.10;;;16.70;99.90;;;;;;5111933;28;20828;-79
2023/07/17 00:13:27;;;;;;;3.45;1.80;;;16.60;99.90;;;;;;5109104;27;20035;-79
2023/07/17 00:15:53;;;;;;;6.32;2.58;;;16.70;99.90;;;;;;5112011;28;20050;-79
2023/07/17 00:18:19;;;;;;;5.72;2.20;;;16.70;99.90;;;;;;5106996;28;20040;-79
2023/07/17 00:20:44;;;;;;;5.13;2.15;;;16.60;99.90;;;;;;5109965;28;20505;-79
2023/07/17 00:23:10;;;;;;;6.13;2.05;;;16.70;99.90;;;;;;5109546;28;20035;-79
2023/07/17 00:25:36;;;;;;;4.43;2.15;;;16.70;99.90;;;;;;5111273;27;20122;-77
2023/07/17 00:28:02;;;;;;;6.57;1.95;;;16.60;99.90;;;;;;5112654;28;20694;-78
2023/07/17 00:30:27;;;;;;;11.02;2.90;;;16.70;99.90;;;;;;5117045;27;20130;-79
2023/07/17 00:32:53;;;;;;;7.25;2.30;;;16.60;99.90;;;;;;5118353;27;20047;-78
2023/07/17 00:35:19;;;;;;;6.57;2.08;;;16.60;99.90;;;;;;5114118;27;20039;-79
2023/07/17 00:37:45;;;;;;;10.07;3.33;;;16.60;99.90;;;;;;5110900;27;20143;-79
2023/07/17 00:40:11;;;;;;;8.05;2.33;;;16.60;99.90;;;;;;5114139;27;20069;-80
2023/07/17 00:42:37;;;;;;;8.02;2.60;;;16.60;99.90;;;;;;5114896;27;20063;-79
2023/07/17 00:45:03;;;;;;;5.15;2.22;;;16.60;99.90;;;;;;5113093;27;20425;-79
2023/07/17 00:47:29;;;;;;;6.68;1.98;;;16.60;99.90;;;;;;5110838;27;20102;-79
2023/07/17 00:49:55;;;;;;;5.97;1.52;;;16.50;99.90;;;;;;5112438;27;20078;-79
2023/07/17 00:52:21;;;;;;;3.00;1.55;;;16.40;99.90;;;;;;5114908;27;20554;-79
2023/07/17 00:54:48;;;;;;;6.35;1.10;;;16.40;99.90;;;;;;5112063;27;20235;-76
2023/07/17 00:57:16;;;;;;;4.38;1.63;;;16.30;99.90;;;;;;5110047;27;20054;-76
2023/07/17 00:59:42;;;;;;;6.85;1.60;;;16.30;99.90;;;;;;5111122;27;20035;-79
2023/07/17 01:02:08;;;;;;;4.40;1.25;;;16.20;99.90;;;;;;5113431;27;20032;-79
2023/07/17 01:04:35;;;;;;;4.13;1.08;;;16.20;99.90;;;;;;5114708;27;20109;-79
2023/07/17 01:07:01;;;;;;;6.72;1.50;;;16.10;99.90;;;;;;5112821;27;20114;-79
2023/07/17 01:09:26;;;;;;;3.85;1.08;;;16.10;99.90;;;;;;5116384;27;20161;-79
2023/07/17 01:11:52;;;;;;;2.42;1.13;;;16.00;99.90;;;;;;5113531;27;20039;-77
2023/07/17 01:14:18;;;;;;;5.20;1.25;;;16.10;99.90;;;;;;5109711;27;20058;-78
2023/07/17 01:16:46;;;;;;;4.00;1.08;;;16.00;99.90;;;;;;5111135;27;20040;-79
2023/07/17 01:19:11;;;;;;;4.82;0.90;;;15.90;99.90;;;;;;5115272;27;20742;-78
2023/07/17 01:21:48;;;;;;;4.28;1.40;;;15.90;99.90;;;;;;5112962;27;20027;-79
2023/07/17 01:24:14;;;;;;;6.93;1.35;;;15.90;99.90;;;;;;5115156;27;20064;-76
2023/07/17 01:26:39;;;;;;;3.08;0.95;;;15.90;99.90;;;;;;5114798;27;20036;-80
2023/07/17 01:29:05;;;;;;;4.20;1.08;;;15.90;99.90;;;;;;5111485;27;20047;-79
2023/07/17 01:31:30;;;;;;;7.45;2.05;;;15.80;99.90;;;;;;5115296;27;20027;-79
2023/07/17 01:33:56;;;;;;;4.43;1.00;;;15.80;99.90;;;;;;5108658;27;20032;-78
2023/07/17 01:36:22;;;;;;;5.28;1.25;;;15.80;99.90;;;;;;5112026;27;20028;-76
2023/07/17 01:38:48;;;;;;;6.95;1.83;;;15.80;99.90;;;;;;5113361;27;20069;-79
2023/07/17 01:41:13;;;;;;;4.22;1.08;;;15.80;99.90;;;;;;5113993;27;20078;-79
2023/07/17 01:43:39;;;;;;;7.00;1.88;;;15.80;99.90;;;;;;5107879;27;20059;-79
2023/07/17 01:46:04;;;;;;;8.43;1.60;;;15.80;99.90;;;;;;5114839;27;20058;-78
2023/07/17 01:48:30;;;;;;;5.50;1.50;;;15.80;99.90;;;;;;5112631;27;20047;-79
2023/07/17 01:50:56;;;;;;;5.82;1.75;;;15.70;99.90;;;;;;5112603;27;20482;-78
2023/07/17 01:53:21;;;;;;;3.30;1.13;;;15.70;99.90;;;;;;5113564;27;20031;-79
2023/07/17 01:55:48;;;;;;;5.95;1.40;;;15.70;99.90;;;;;;5111160;27;20115;-79
2023/07/17 01:58:14;;;;;;;11.27;1.67;;;15.70;99.90;;;;;;5120163;27;20040;-78
2023/07/17 02:00:40;;;;;;;7.60;1.85;;;15.80;99.90;;;;;;5114119;27;20040;-79
2023/07/17 02:03:05;;;;;;;4.93;1.40;;;15.80;99.90;;;;;;5111363;27;20039;-78
2023/07/17 02:05:31;;;;;;;5.00;1.60;;;15.70;99.90;;;;;;5118488;27;20063;-77
2023/07/17 02:07:56;;;;;;;3.30;1.35;;;15.70;99.90;;;;;;5115556;27;20725;-78
2023/07/17 02:10:22;;;;;;;5.20;1.20;;;15.70;99.90;;;;;;5116959;27;20040;-79
2023/07/17 02:12:48;;;;;;;6.72;1.55;;;15.60;99.90;;;;;;5111603;27;20498;-79
2023/07/17 02:15:13;;;;;;;4.13;1.13;;;15.70;99.90;;;;;;5115678;27;20409;-78
2023/07/17 02:17:39;;;;;;;3.63;1.35;;;15.60;99.90;;;;;;5113145;27;20095;-79
2023/07/17 02:20:10;;;;;;;5.03;1.35;;;15.60;99.90;;;;;;5111683;27;20104;-79
2023/07/17 02:22:36;;;;;;;4.13;1.05;;;15.60;99.90;;;;;;5109164;27;20039;-79
2023/07/17 02:25:02;;;;;;;3.25;1.02;;;15.60;99.90;;;;;;5116133;27;20039;-79
2023/07/17 02:27:27;;;;;;;4.07;1.10;;;15.60;99.90;;;;;;5110692;27;20051;-78
2023/07/17 02:29:54;;;;;;;5.43;1.00;;;15.50;99.90;;;;;;5114823;27;20054;-79
2023/07/17 02:32:19;;;;;;;3.20;1.30;;;15.50;99.90;;;;;;5113987;27;20041;-79
2023/07/17 02:34:45;;;;;;;7.60;1.50;;;15.40;99.90;;;;;;5115632;27;20150;-78
2023/07/17 02:37:11;;;;;;;5.80;1.50;;;15.40;99.90;;;;;;5110004;27;20043;-78
2023/07/17 02:39:36;;;;;;;6.00;1.50;;;15.40;99.90;;;;;;5112581;27;20039;-78
2023/07/17 02:42:02;;;;;;;6.10;1.45;;;15.40;99.90;;;;;;5112909;27;20110;-79
2023/07/17 02:44:27;;;;;;;8.35;2.15;;;15.40;99.90;;;;;;5105043;27;20039;-79
2023/07/17 02:46:53;;;;;;;8.32;1.77;;;15.30;99.90;;;;;;5113232;27;20071;-78
2023/07/17 02:49:18;;;;;;;6.65;1.75;;;15.30;99.90;;;;;;5112567;27;20051;-76
2023/07/17 02:51:44;;;;;;;7.68;1.92;;;15.30;99.90;;;;;;5112929;27;20494;-80
2023/07/17 02:54:10;;;;;;;6.28;1.92;;;15.30;99.90;;;;;;5109809;27;20490;-79
2023/07/17 02:56:35;;;;;;;8.02;1.60;;;15.30;99.90;;;;;;5106265;27;20127;-80
2023/07/17 02:59:01;;;;;;;7.80;1.77;;;15.20;99.90;;;;;;5110323;27;20039;-79
2023/07/17 03:01:26;;;;;;;7.43;2.05;;;15.20;99.90;;;;;;5114838;27;20032;-77
2023/07/17 03:03:52;;;;;;;6.65;1.67;;;15.20;99.90;;;;;;5111056;27;20055;-79
2023/07/17 03:06:17;;;;;;;8.95;2.10;;;15.20;99.90;;;;;;5111424;27;20110;-78
2023/07/17 03:08:43;;;;;;;4.97;1.60;;;15.20;99.90;;;;;;5114003;27;20047;-79
2023/07/17 03:11:08;;;;;;;8.13;2.22;;;15.20;99.90;;;;;;5114977;27;20039;-79
2023/07/17 03:13:34;;;;;;;5.70;1.55;;;15.20;99.90;;;;;;5114114;27;20111;-78
2023/07/17 03:15:59;;;;;;;7.00;2.00;;;15.10;99.90;;;;;;5110139;27;20039;-78
2023/07/17 03:18:28;;;;;;;7.43;1.73;;;15.10;99.90;;;;;;5114751;27;20035;-79
2023/07/17 03:20:56;;;;;;;7.55;1.80;;;15.10;99.90;;;;;;5110166;27;20036;-79
2023/07/17 03:23:22;;;;;;;14.55;2.45;;;15.20;99.90;;;;;;5113662;27;20035;-78
2023/07/17 03:25:48;;;;;;;10.20;2.03;;;15.10;99.90;;;;;;5107946;27;21908;-77
2023/07/17 03:28:14;;;;;;;8.73;1.88;;;15.10;99.90;;;;;;5109134;27;20037;-79
2023/07/17 03:30:40;;;;;;;7.88;1.30;;;15.10;99.90;;;;;;5110019;27;20039;-79
2023/07/17 03:33:06;;;;;;;6.65;1.85;;;15.10;99.90;;;;;;5111883;27;20077;-79
2023/07/17 03:35:33;;;;;;;12.52;3.17;;;15.10;99.90;;;;;;5113012;27;20191;-78
2023/07/17 03:37:59;;;;;;;8.52;1.70;;;15.10;99.90;;;;;;5107787;27;20036;-75
2023/07/17 03:40:24;;;;;;;6.00;1.75;;;15.10;99.90;;;;;;5113008;27;20069;-77
2023/07/17 03:42:50;;;;;;;9.13;2.33;;;15.10;99.90;;;;;;5112137;27;20032;-79
2023/07/17 03:45:15;;;;;;;5.30;2.03;;;15.10;99.90;;;;;;5113616;27;20044;-78
2023/07/17 03:47:41;;;;;;;7.57;1.88;;;15.10;99.90;;;;;;5107357;27;20055;-77
2023/07/17 03:50:07;;;;;;;11.55;2.25;;;15.10;99.90;;;;;;5106667;27;20213;-79
2023/07/17 03:52:32;;;;;;;8.93;1.90;;;15.10;99.90;;;;;;5109299;27;20558;-79
2023/07/17 03:54:58;;;;;;;9.40;2.35;;;15.10;99.90;;;;;;5100557;28;20119;-79
2023/07/17 03:57:23;;;;;;;9.77;1.73;;;15.10;99.90;;;;;;5106984;27;20047;-79
2023/07/17 03:59:53;;;;;;;7.93;2.15;;;15.20;99.90;;;;;;5114009;27;20047;-78
2023/07/17 04:02:19;;;;;;;8.02;1.73;;;15.10;99.90;;;;;;5108732;27;20036;-80
2023/07/17 04:04:45;;;;;;;7.32;1.98;;;15.10;99.90;;;;;;5113071;27;20069;-79
2023/07/17 04:07:11;;;;;;;8.75;2.22;;;15.20;99.90;;;;;;5113225;27;20039;-79
2023/07/17 04:09:37;;;;;;;6.80;1.33;;;15.20;99.90;;;;;;5108650;28;20039;-78
2023/07/17 04:12:04;;;;;;;8.32;2.90;;;15.20;99.90;;;;;;5106619;28;20047;-78
2023/07/17 04:14:31;;;;;;;9.75;1.92;;;15.20;99.90;;;;;;5109376;28;20033;-76
2023/07/17 04:16:57;;;;;;;9.15;2.08;;;15.20;99.90;;;;;;5110425;28;20482;-78
2023/07/17 04:19:22;;;;;;;9.32;2.20;;;15.30;99.90;;;;;;5109864;27;20117;-78
2023/07/17 04:21:48;;;;;;;11.45;1.88;;;15.70;99.90;;;;;;5108000;28;20051;-76
2023/07/17 04:24:13;;;;;;;13.85;2.40;;;16.30;99.90;;;;;;5101484;28;20043;-76
2023/07/17 04:26:39;;;;;;;6.13;1.70;;;16.80;99.90;;;;;;5102445;28;20080;-74
2023/07/17 04:29:06;;;;;;;5.03;2.10;;;16.90;99.90;;;;;;5101561;28;20055;-78
2023/07/17 04:31:32;;;;;;;6.63;2.15;;;16.80;99.90;;;;;;5104052;28;20054;-79
2023/07/17 04:33:57;;;;;;;11.57;1.92;;;17.00;99.90;;;;;;5107786;28;20040;-78
2023/07/17 04:36:23;;;;;;;6.65;1.75;;;17.10;99.90;;;;;;5112096;27;20109;-76
2023/07/17 04:38:48;;;;;;;6.22;2.63;;;17.60;99.90;;;;;;5108383;28;20067;-76
2023/07/17 04:41:14;;;;;;;5.65;2.00;;;17.90;99.90;;;;;;5105576;28;20038;-78
2023/07/17 04:43:40;;;;;;;7.28;2.38;;;18.00;99.90;;;;;;5114244;27;20067;-79
2023/07/17 04:46:05;;;;;;;6.68;2.00;;;18.10;99.90;;;;;;5109145;27;20036;-78
2023/07/17 04:48:31;;;;;;;5.03;1.75;;;18.10;99.90;;;;;;5105427;28;20037;-78
2023/07/17 04:50:56;;;;;;;7.88;1.85;;;17.90;99.90;;;;;;5105245;28;20039;-78
2023/07/17 04:53:22;;;;;;;5.18;1.67;;;17.80;99.90;;;;;;5110686;27;20069;-78
2023/07/17 04:55:48;;;;;;;6.70;2.13;;;17.70;99.90;;;;;;5107970;28;20086;-79
2023/07/17 04:58:14;;;;;;;9.40;2.42;;;17.50;99.90;;;;;;5108574;28;20646;-78
2023/07/17 05:00:39;;;;;;;7.82;2.85;;;17.40;99.90;;;;;;5112383;28;20035;-78
2023/07/17 05:03:05;;;;;;;7.60;2.17;;;17.40;99.90;;;;;;5110105;28;20028;-78
2023/07/17 05:05:31;;;;;;;10.15;2.08;;;17.30;99.90;;;;;;5106269;28;20104;-78
2023/07/17 05:07:57;;;;;;;5.65;1.55;;;17.40;99.90;;;;;;5106720;27;20117;-77
2023/07/17 05:10:22;;;;;;;6.47;2.28;;;17.30;99.90;;;;;;5112313;27;20099;-78
2023/07/17 05:12:48;;;;;;;11.57;2.30;;;17.30;99.90;;;;;;5107846;28;20047;-78
2023/07/17 05:15:13;;;;;;;6.45;2.10;;;17.30;99.90;;;;;;5109319;27;20032;-75
2023/07/17 05:17:39;;;;;;;10.65;2.50;;;17.40;99.90;;;;;;5116232;27;20028;-79
2023/07/17 05:20:06;;;;;;;8.32;2.42;;;17.40;99.90;;;;;;5113596;27;20099;-79
2023/07/17 05:22:31;;;;;;;9.48;2.25;;;17.70;99.90;;;;;;5113957;27;20393;-79
2023/07/17 05:24:58;;;;;;;9.30;2.00;;;18.50;99.90;;;;;;5111333;27;20036;-79
2023/07/17 05:27:24;;;;;;;8.30;2.28;;;19.70;99.90;;;;;;5113030;27;20031;-79
2023/07/17 05:29:49;;;;;;;7.93;2.05;;;20.60;99.90;;;;;;5113141;27;20088;-79
2023/07/17 05:32:15;;;;;;;10.73;2.15;;;21.30;99.90;;;;;;5113717;27;20101;-80
2023/07/17 05:34:40;;;;;;;8.77;2.38;;;21.20;99.90;;;;;;5114394;27;20047;-77
2023/07/17 05:37:06;;;;;;;14.02;3.20;;;20.60;99.90;;;;;;5109759;27;20035;-78
2023/07/17 05:39:31;;;;;;;9.77;1.95;;;20.10;99.90;;;;;;5115463;27;20040;-79
2023/07/17 05:41:57;;;;;;;8.82;2.33;;;19.60;99.90;;;;;;5120695;27;20062;-78
2023/07/17 05:44:22;;;;;;;6.55;2.28;;;19.10;99.90;;;;;;5115093;27;20063;-78
2023/07/17 05:46:48;;;;;;;13.60;2.88;;;18.80;99.90;;;;;;5114313;27;20043;-79
2023/07/17 05:49:14;;;;;;;6.88;2.67;;;18.50;99.90;;;;;;5114985;27;20028;-79
2023/07/17 05:51:39;;;;;;;7.13;2.38;;;18.30;99.90;;;;;;5110671;27;20035;-79
2023/07/17 05:54:06;;;;;;;7.05;2.78;;;18.10;99.90;;;;;;5114602;27;20074;-79
2023/07/17 05:56:31;;;;;;;6.72;2.42;;;18.00;99.90;;;;;;5110540;27;20039;-79
2023/07/17 05:58:57;;;;;;;9.98;2.60;;;17.90;99.90;;;;;;5114047;27;20043;-78
2023/07/17 06:01:22;;;;;;;8.43;3.33;;;17.80;99.90;;;;;;5113513;27;20238;-79
2023/07/17 06:03:48;;;;;;;7.78;2.83;;;17.70;99.90;;;;;;5109595;27;20039;-79
2023/07/17 06:06:13;;;;;;;7.35;3.13;;;17.60;99.90;;;;;;5113226;27;20049;-78
2023/07/17 06:08:39;;;;;;;10.30;2.92;;;17.60;99.90;;;;;;5115334;27;20040;-78
2023/07/17 06:11:05;;;;;;;8.60;2.78;;;17.60;99.90;;;;;;5115678;27;20392;-79
2023/07/17 06:13:30;;;;;;;11.73;3.58;;;17.60;99.90;;;;;;5123008;27;20035;-79
2023/07/17 06:15:56;;;;;;;6.95;2.30;;;17.70;99.90;;;;;;5108645;27;20044;-79
2023/07/17 06:18:21;;;;;;;8.07;3.05;;;18.00;99.90;;;;;;5114682;27;20493;-79
2023/07/17 06:20:47;;;;;;;9.27;2.95;;;18.30;99.90;;;;;;5119036;27;20039;-76
2023/07/17 06:23:12;;;;;;;9.48;3.65;;;18.40;99.90;;;;;;5119864;27;20043;-79
2023/07/17 06:25:38;;;;;;;7.40;3.38;;;18.30;99.90;;;;;;5122866;27;20401;-77
2023/07/17 06:28:04;;;;;;;8.65;2.92;;;18.30;99.90;;;;;;5117314;27;20044;-77
2023/07/17 06:30:31;;;;;;;5.60;3.05;;;18.10;99.90;;;;;;5117576;27;20039;-78
2023/07/17 06:32:57;;;;;;;8.93;3.42;;;18.10;99.90;;;;;;5114234;27;20397;-76
2023/07/17 06:35:22;;;;;;;6.50;2.90;;;18.00;99.90;;;;;;5112620;27;20040;-78
2023/07/17 06:37:48;;;;;;;11.63;4.47;;;18.10;99.90;;;;;;5115831;27;20088;-78
2023/07/17 06:40:14;;;;;;;8.57;3.17;;;18.50;99.90;;;;;;5117284;27;20467;-78
2023/07/17 06:42:39;;;;;;;9.52;3.97;;;18.90;99.90;;;;;;5120621;27;20042;-79
2023/07/17 06:45:06;;;;;;;11.43;3.50;;;19.20;99.90;;;;;;5116035;27;20114;-78
2023/07/17 06:47:32;;;;;;;8.70;3.55;;;19.60;99.90;;;;;;5116320;27;20406;-79
2023/07/17 06:49:58;;;;;;;10.10;3.72;;;19.80;99.90;;;;;;5116093;27;20035;-79
2023/07/17 06:52:24;;;;;;;9.65;3.88;;;20.00;99.90;;;;;;5114012;27;20378;-79
2023/07/17 06:54:49;;;;;;;10.02;4.00;;;20.20;99.90;;;;;;5117434;27;20043;-79
2023/07/17 06:57:15;;;;;;;9.27;3.33;;;20.30;99.90;;;;;;5115860;27;20039;-77
2023/07/17 06:59:41;;;;;;;7.63;3.22;;;20.60;99.90;;;;;;5116028;27;20038;-79
2023/07/17 07:02:06;;;;;;;9.10;4.10;;;20.90;99.90;;;;;;5117062;27;20031;-79
2023/07/17 07:04:32;;;;;;;10.35;4.65;;;20.90;99.90;;;;;;5118069;27;20039;-79
2023/07/17 07:06:57;;;;;;;9.25;4.07;;;20.90;99.90;;;;;;5120515;27;20031;-78
2023/07/17 07:09:23;;;;;;;7.95;3.78;;;21.00;99.90;;;;;;5111279;27;20048;-76
2023/07/17 07:11:48;;;;;;;11.02;4.95;;;21.20;99.90;;;;;;5107279;27;20122;-79
2023/07/17 07:14:14;;;;;;;10.80;5.25;;;21.10;99.90;;;;;;5111879;27;20107;-78
2023/07/17 07:16:40;;;;;;;13.15;4.88;;;21.20;99.90;;;;;;5111049;27;20039;-77
2023/07/17 07:19:05;;;;;;;13.00;5.53;;;21.00;99.90;;;;;;5111417;27;20074;-79
2023/07/17 07:21:31;;;;;;;12.10;4.40;;;21.00;99.90;;;;;;5120464;27;20626;-79
2023/07/17 07:23:56;;;;;;;11.82;4.60;;;20.80;99.90;;;;;;5118632;27;20027;-77
2023/07/17 07:26:22;;;;;;;10.43;4.50;;;20.70;99.90;;;;;;5120736;27;20123;-75
2023/07/17 07:28:47;;;;;;;10.18;4.30;;;20.70;99.90;;;;;;5120026;27;20115;-77
2023/07/17 07:31:13;;;;;;;10.77;4.05;;;20.90;99.90;;;;;;5120327;27;20043;-78
2023/07/17 07:33:38;;;;;;;9.30;4.00;;;21.10;99.90;;;;;;5115454;27;20039;-78
2023/07/17 07:36:04;;;;;;;8.32;3.55;;;21.30;99.90;;;;;;5115186;27;20046;-78
2023/07/17 07:38:29;;;;;;;14.55;5.20;;;21.60;99.90;;;;;;5116679;27;20046;-79
2023/07/17 07:40:55;;;;;;;11.38;4.40;;;21.90;99.90;;;;;;5120685;27;20039;-79
2023/07/17 07:43:21;;;;;;;13.20;3.67;;;22.10;99.90;;;;;;5121873;27;20039;-79
2023/07/17 07:45:46;;;;;;;13.60;4.88;;;22.30;99.90;;;;;;5113455;27;20036;-76
2023/07/17 07:48:12;;;;;;;13.88;4.72;;;22.20;99.90;;;;;;5118409;27;20512;-78
2023/07/17 07:50:37;;;;;;;13.20;3.83;;;21.90;99.90;;;;;;5113599;27;20756;-79
2023/07/17 07:53:03;;;;;;;9.65;4.18;;;21.60;99.90;;;;;;5117027;27;20432;-76
2023/07/17 07:55:29;;;;;;;9.77;4.10;;;21.20;99.90;;;;;;5106144;27;20050;-79
2023/07/17 07:57:54;;;;;;;10.52;3.80;;;20.80;99.90;;;;;;5109877;27;20050;-78
2023/07/17 08:00:20;;;;;;;7.75;4.32;;;20.50;99.90;;;;;;5115652;27;20044;-78
2023/07/17 08:02:45;;;;;;;6.75;3.95;;;20.20;99.90;;;;;;5118107;27;20073;-77
2023/07/17 08:05:11;;;;;;;10.63;3.80;;;20.00;99.90;;;;;;5109674;27;20039;-79
2023/07/17 08:07:37;;;;;;;12.02;4.68;;;19.90;99.90;;;;;;5114030;28;20032;-79
2023/07/17 08:10:03;;;;;;;17.35;4.10;;;19.90;99.90;;;;;;5121180;27;20066;-79
2023/07/17 08:12:30;;;;;;;10.13;4.38;;;19.70;99.90;;;;;;5118970;27;20077;-78
2023/07/17 08:14:55;;;;;;;12.82;4.53;;;19.70;99.90;;;;;;5114115;28;20043;-79
2023/07/17 08:17:21;;;;;;;11.77;4.18;;;19.60;99.90;;;;;;5117005;27;20040;-78
2023/07/17 08:19:46;;;;;;;7.65;4.00;;;19.50;99.90;;;;;;5116655;28;20478;-78
2023/07/17 08:22:12;;;;;;;6.60;2.92;;;19.30;99.90;;;;;;5115756;28;20474;-77
2023/07/17 08:24:37;;;;;;;4.68;2.97;;;19.20;99.90;;;;;;5111150;28;20031;-79
2023/07/17 08:27:03;;;;;;;5.63;2.83;;;19.30;99.90;;;;;;5118796;28;20150;-80
2023/07/17 08:29:29;;;;;;;8.10;2.88;;;19.20;99.90;;;;;;5114310;28;20038;-79
2023/07/17 08:31:54;;;;;;;7.93;4.10;;;19.30;99.90;;;;;;5118354;28;20050;-78
2023/07/17 08:34:23;;;;;;;9.15;3.78;;;19.30;99.90;;;;;;5113764;28;20075;-80
2023/07/17 08:36:49;;;;;;;10.50;5.40;;;19.20;99.90;;;;;;5109942;27;20035;-79
2023/07/17 08:39:14;;;;;;;6.75;3.65;;;19.20;99.90;;;;;;5117540;28;20138;-80
2023/07/17 08:41:42;;;;;;;9.02;4.00;;;19.00;99.90;;;;;;5108431;27;20098;-77
2023/07/17 08:44:08;;;;;;;7.60;3.40;;;18.90;99.90;;;;;;5106929;28;20086;-79
2023/07/17 08:46:34;;;;;;;7.97;3.85;;;18.80;99.90;;;;;;5118152;28;20027;-79
2023/07/17 08:49:01;;;;;;;11.15;4.10;;;18.70;99.90;;;;;;5118113;28;20705;-79
2023/07/17 08:51:29;;;;;;;9.55;4.05;;;18.70;99.90;;;;;;5123407;27;20039;-78
2023/07/17 08:53:56;;;;;;;8.60;4.38;;;18.50;99.90;;;;;;5121382;27;20084;-79
2023/07/17 08:56:22;;;;;;;10.15;4.30;;;18.70;99.90;;;;;;5122598;27;20028;-76
2023/07/17 08:58:51;;;;;;;10.57;4.53;;;19.10;99.90;;;;;;5117873;27;20100;-79
2023/07/17 09:01:17;;;;;;;10.88;4.53;;;19.40;99.90;;;;;;5120028;27;20047;-79
2023/07/17 09:03:43;;;;;;;6.75;3.33;;;19.70;99.90;;;;;;5122848;27;20039;-79
2023/07/17 09:06:13;;;;;;;7.57;3.53;;;19.90;99.90;;;;;;5123187;27;20370;-77
2023/07/17 09:08:38;;;;;;;10.88;4.10;;;20.30;99.90;;;;;;5116412;27;20355;-79
2023/07/17 09:11:06;;;;;;;12.27;3.53;;;20.60;99.90;;;;;;5118997;27;20046;-78
2023/07/17 09:13:39;;;;;;;6.00;3.10;;;20.80;99.90;;;;;;5119990;27;20075;-77
2023/07/17 09:16:22;;;;;;;6.28;3.40;;;20.90;99.90;;;;;;5112817;27;20041;-77
2023/07/17 09:18:50;;;;;;;7.10;2.88;;;20.80;99.90;;;;;;5105647;27;20116;-79
2023/07/17 09:21:18;;;;;;;8.07;2.45;;;20.60;99.90;;;;;;5120107;27;20102;-79
2023/07/17 09:23:48;;;;;;;9.02;3.05;;;20.40;99.90;;;;;;5124920;27;20051;-78
2023/07/17 09:26:15;;;;;;;11.80;3.17;;;20.20;99.90;;;;;;5125382;27;20893;-79
2023/07/17 09:28:51;;;;;;;11.93;2.50;;;20.30;99.90;;;;;;5114888;27;20043;-78
2023/07/17 09:31:28;;;;;;;8.70;2.70;;;20.20;99.90;;;;;;5114157;27;20039;-78
2023/07/17 09:34:12;;;;;;;5.90;2.70;;;20.20;99.90;;;;;;5117104;27;20055;-79
2023/07/17 09:36:37;;;;;;;6.28;2.90;;;20.30;99.90;;;;;;5119703;27;20477;-78
2023/07/17 09:39:05;;;;;;;6.60;2.90;;;20.40;99.90;;;;;;5116492;27;20044;-78
2023/07/17 09:41:30;;;;;;;8.63;2.30;;;20.60;99.90;;;;;;5117059;27;20412;-79
2023/07/17 09:44:01;;;;;;;7.22;2.10;;;20.80;99.90;;;;;;5122642;27;20040;-79
2023/07/17 09:46:28;;;;;;;8.27;2.63;;;20.70;99.90;;;;;;5115427;27;20054;-80
2023/07/17 09:48:54;;;;;;;8.02;2.17;;;20.60;99.90;;;;;;5116241;27;20107;-79
2023/07/17 09:51:20;;;;;;;6.00;2.00;;;20.50;99.90;;;;;;5113798;27;20073;-79
2023/07/17 09:53:47;;;;;;;6.55;2.22;;;20.40;99.90;;;;;;5113784;27;20035;-79
2023/07/17 09:56:15;;;;;;;6.40;2.38;;;20.50;99.90;;;;;;5118733;27;20065;-79
2023/07/17 09:58:53;;;;;;;4.25;1.75;;;20.50;99.90;;;;;;5121560;27;20046;-79
2023/07/17 10:01:22;;;;;;;5.15;1.83;;;20.40;99.90;;;;;;5107394;27;20110;-78
2023/07/17 10:03:50;;;;;;;6.95;2.25;;;20.30;99.90;;;;;;5117431;27;20036;-77
2023/07/17 10:06:19;;;;;;;6.03;2.10;;;20.40;99.90;;;;;;5115638;27;20502;-79
2023/07/17 10:08:50;;;;;;;2.85;1.70;;;20.60;99.90;;;;;;5120060;27;20119;-79
2023/07/17 10:11:19;;;;;;;10.13;2.88;;;20.90;99.90;;;;;;5119177;27;20083;-77
2023/07/17 10:13:47;;;;;;;8.75;2.42;;;21.20;99.90;;;;;;5117309;27;20031;-79
2023/07/17 10:16:18;;;;;;;4.88;2.60;;;21.40;99.90;;;;;;5115231;27;20070;-79
2023/07/17 10:19:04;;;;;;;6.60;2.72;;;21.40;99.90;;;;;;5118883;27;20036;-79
2023/07/17 10:21:30;;;;;;;5.35;1.95;;;21.20;99.90;;;;;;5112203;27;20605;-78
2023/07/17 10:24:02;;;;;;;7.47;2.15;;;21.30;99.90;;;;;;5120275;27;20094;-79
2023/07/17 10:26:31;;;;;;;8.18;3.55;;;21.30;99.90;;;;;;5114794;27;20050;-79
2023/07/17 10:29:00;;;;;;;7.00;2.15;;;21.30;99.90;;;;;;5114346;27;20573;-79
2023/07/17 10:31:26;;;;;;;9.15;2.08;;;21.40;99.90;;;;;;5119664;27;20035;-79
2023/07/17 10:34:12;;;;;;;6.63;2.03;;;21.50;99.90;;;;;;5115939;27;20047;-79
2023/07/17 10:36:38;;;;;;;;;;;21.60;99.90;;;;;;5117150;27;20043;-78
2023/07/17 10:39:05;;;;;;;6.07;2.30;;;21.80;99.90;;;;;;5121084;27;19920;-79
2023/07/17 10:41:30;;;;;;;5.75;1.90;;;22.10;99.90;;;;;;5120354;27;20088;-79
2023/07/17 10:43:58;;;;;;;5.72;2.05;;;22.30;99.90;;;;;;5116212;27;20059;-80
2023/07/17 10:46:32;;;;;;;7.53;1.80;;;22.40;99.90;;;;;;5117064;27;20040;-78
2023/07/17 10:49:26;;;;;;;4.82;2.25;;;22.60;99.90;;;;;;5117394;27;20039;-78
2023/07/17 10:51:52;;;;;;;10.25;2.67;;;22.50;99.90;;;;;;5108424;27;20193;-77
2023/07/17 10:54:18;;;;;;;5.53;2.65;;;22.40;99.90;;;;;;5117302;27;20114;-77
2023/07/17 10:56:47;;;;;;;5.03;2.00;;;22.30;99.90;;;;;;5118285;27;20042;-75
2023/07/17 10:59:13;;;;;;;4.57;2.10;;;22.30;99.90;;;;;;5116907;27;20088;-78
2023/07/17 11:01:39;;;;;;;3.45;2.15;;;22.10;99.90;;;;;;5111639;27;20397;-76
2023/07/17 11:04:09;;;;;;;6.13;2.28;;;22.00;99.90;;;;;;5115749;27;20032;-78
2023/07/17 11:06:34;;;;;;;8.15;2.35;;;22.10;99.90;;;;;;5115222;27;20024;-78
2023/07/17 11:09:00;;;;;;;6.22;1.95;;;22.10;99.90;;;;;;5113204;27;20048;-77
2023/07/17 11:11:26;;;;;;;4.60;2.38;;;22.10;99.90;;;;;;5117977;27;20027;-77
2023/07/17 11:13:54;;;;;;;8.48;1.60;;;22.30;99.90;;;;;;5115550;27;20063;-78
2023/07/17 11:16:21;;;;;;;12.75;2.47;;;22.30;99.90;;;;;;5111241;27;20402;-79
2023/07/17 11:18:48;;;;;;;7.57;2.00;;;22.30;99.90;;;;;;5110944;27;20047;-78
2023/07/17 11:21:15;;;;;;;5.78;1.80;;;22.50;99.90;;;;;;5113458;27;20533;-78
2023/07/17 11:23:51;;;;;;;4.80;1.38;;;22.80;99.90;;;;;;5118009;27;20539;-78
2023/07/17 11:26:29;;;;;;;11.73;2.38;;;23.00;99.90;;;;;;5112620;27;20035;-77
2023/07/17 11:28:56;;;;;;;17.83;2.42;;;23.10;99.90;;;;;;5116758;27;20044;-78
2023/07/17 11:31:35;;;;;;;8.30;1.52;;;23.20;99.90;;;;;;5114437;27;20397;-77
2023/07/17 11:34:10;;;;;;;13.23;2.55;;;23.10;99.90;;;;;;5111193;27;20410;-77
2023/07/17 11:36:43;;;;;;;;;;;22.90;99.90;;;;;;5112881;27;20097;-78
2023/07/17 11:39:23;;;;;;;4.95;1.30;;;22.80;99.90;;;;;;5113547;27;20681;-76
2023/07/17 11:41:53;;;;;;;6.03;2.08;;;22.90;99.90;;;;;;5111045;27;20035;-78
2023/07/17 11:44:26;;;;;;;9.35;1.70;;;22.90;99.90;;;;;;5109898;27;20379;-79
2023/07/17 11:46:56;;;;;;;7.47;1.52;;;23.00;99.90;;;;;;5113418;27;20039;-79
2023/07/17 11:49:25;;;;;;;9.00;1.85;;;22.80;99.90;;;;;;5118238;27;20062;-79
2023/07/17 11:51:51;;;;;;;4.22;1.67;;;22.80;99.90;;;;;;5113579;27;20077;-80
2023/07/17 11:54:16;;;;;;;4.80;2.22;;;22.60;99.90;;;;;;5119176;27;20765;-79
2023/07/17 11:56:44;;;;;;;8.07;2.03;;;22.50;99.90;;;;;;5119574;27;20413;-79
2023/07/17 11:59:20;;;;;;;4.70;2.17;;;22.40;99.90;;;;;;5122492;27;20043;-79
2023/07/17 12:01:46;;;;;;;6.43;1.75;;;22.40;99.90;;;;;;5111848;27;20042;-77
2023/07/17 12:04:23;;;;;;;4.72;1.70;;;22.10;99.90;;;;;;5109475;27;20077;-78
2023/07/17 12:06:49;;;;;;;7.25;2.00;;;22.10;99.90;;;;;;5113727;27;20047;-79
2023/07/17 12:09:16;;;;;;;13.75;2.35;;;22.30;99.90;;;;;;5112747;27;20047;-80
2023/07/17 12:11:45;;;;;;;22.10;2.38;;;22.60;99.90;;;;;;5117826;27;20035;-79
2023/07/17 12:14:13;;;;;;;5.82;1.40;;;22.50;99.90;;;;;;5114958;28;20035;-78
2023/07/17 12:16:39;;;;;;;6.35;1.30;;;22.30;99.90;;;;;;5106707;28;20040;-79
2023/07/17 12:19:04;;;;;;;9.27;1.88;;;22.30;99.90;;;;;;5115074;28;20046;-79
2023/07/17 12:21:30;;;;;;;5.53;1.42;;;22.10;99.90;;;;;;5116176;28;20068;-78
2023/07/17 12:23:56;;;;;;;10.93;2.20;;;21.90;99.90;;;;;;5116581;28;20059;-79
2023/07/17 12:26:21;;;;;;;4.70;2.00;;;21.60;99.90;;;;;;5118938;27;20428;-78
2023/07/17 12:28:47;;;;;;;6.07;1.40;;;21.40;99.90;;;;;;5121812;27;20086;-78
2023/07/17 12:31:12;;;;;;;6.00;1.70;;;21.20;99.90;;;;;;5123020;27;20036;-78
2023/07/17 12:33:38;;;;;;;4.85;1.55;;;21.30;99.90;;;;;;5119619;27;20085;-78
2023/07/17 12:36:04;;;;;;;7.18;2.17;;;21.50;99.90;;;;;;5119040;27;20089;-79
2023/07/17 12:38:29;;;;;;;4.40;1.70;;;21.70;99.90;;;;;;5114667;27;20056;-79
2023/07/17 12:40:55;;;;;;;6.55;1.35;;;21.80;99.90;;;;;;5123483;27;20035;-79
2023/07/17 12:43:20;;;;;;;5.65;2.15;;;21.90;99.90;;;;;;5120504;27;20031;-79